sensor_id;sensor_type;location;lat;lon;timestamp;temperature;humidity
5476;DHT22;2760;50.000;9.194;2023-04-24T00:02:01;13.50;99.90
5476;DHT22;2760;50.000;9.194;2023-04-24T00:09:29;13.40;99.90
5476;DHT22;2760;50.000;9.194;2023-04-24T00:14:24;13.50;99.90
5476;DHT22;2760;50.000;9.194;2023-04-24T00:16:50;15.90;99.90
5476;DHT22;2760;50.000;9.194;2023-04-24T00:19:18;13.40;99.90
5476;DHT22;2760;50.000;9.194;2023-04-24T00:21:47;16.10;99.90
5476;DHT22;2760;50.000;9.194;2023-04-24T00:24:15;13.40;99.90
5476;DHT22;2760;50.000;9.194;2023-04-24T00:26:44;13.50;99.90
5476;DHT22;2760;50.000;9.194;2023-04-24T00:29:11;13.40;99.90
5476;DHT22;2760;50.000;9.194;2023-04-24T00:31:39;13.50;99.90
5476;DHT22;2760;50.000;9.194;2023-04-24T00:34:07;13.50;99.90
5476;DHT22;2760;50.000;9.194;2023-04-24T00:36:34;13.40;99.90
5476;DHT22;2760;50.000;9.194;2023-04-24T00:39:01;13.20;99.90
5476;DHT22;2760;50.000;9.194;2023-04-24T00:41:28;13.30;99.90
5476;DHT22;2760;50.000;9.194;2023-04-24T00:43:58;13.50;99.90
5476;DHT22;2760;50.000;9.194;2023-04-24T00:46:25;13.40;99.90
5476;DHT22;2760;50.000;9.194;2023-04-24T00:48:52;13.20;99.90
5476;DHT22;2760;50.000;9.194;2023-04-24T00:51:19;13.30;99.90
5476;DHT22;2760;50.000;9.194;2023-04-24T00:53:46;13.40;99.90
5476;DHT22;2760;50.000;9.194;2023-04-24T00:56:14;13.30;99.90
5476;DHT22;2760;50.000;9.194;2023-04-24T00:58:42;13.70;99.90
5476;DHT22;2760;50.000;9.194;2023-04-24T01:01:10;13.40;99.90
5476;DHT22;2760;50.000;9.194;2023-04-24T01:03:38;13.40;99.90
5476;DHT22;2760;50.000;9.194;2023-04-24T01:06:05;13.40;99.90
5476;DHT22;2760;50.000;9.194;2023-04-24T01:08:34;13.50;99.90
5476;DHT22;2760;50.000;9.194;2023-04-24T01:11:04;13.50;99.90
5476;DHT22;2760;50.000;9.194;2023-04-24T01:13:32;13.20;99.90
5476;DHT22;2760;50.000;9.194;2023-04-24T01:15:59;13.30;99.90
5476;DHT22;2760;50.000;9.194;2023-04-24T01:18:28;13.40;99.90
5476;DHT22;2760;50.000;9.194;2023-04-24T01:20:58;13.30;99.90
5476;DHT22;2760;50.000;9.194;2023-04-24T01:23:27;13.00;99.90
5476;DHT22;2760;50.000;9.194;2023-04-24T01:25:54;13.10;99.90
5476;DHT22;2760;50.000;9.194;2023-04-24T01:28:22;13.10;99.90
5476;DHT22;2760;50.000;9.194;2023-04-24T01:30:49;13.00;99.90
5476;DHT22;2760;50.000;9.194;2023-04-24T01:33:16;13.20;99.90
5476;DHT22;2760;50.000;9.194;2023-04-24T01:38:11;13.10;99.90
5476;DHT22;2760;50.000;9.194;2023-04-24T01:40:39;15.80;99.90
5476;DHT22;2760;50.000;9.194;2023-04-24T01:43:07;13.10;99.90
5476;DHT22;2760;50.000;9.194;2023-04-24T01:45:34;13.10;99.90
5476;DHT22;2760;50.000;9.194;2023-04-24T01:48:03;13.00;99.90
5476;DHT22;2760;50.000;9.194;2023-04-24T01:50:31;13.80;99.90
5476;DHT22;2760;50.000;9.194;2023-04-24T01:52:58;13.60;99.90
5476;DHT22;2760;50.000;9.194;2023-04-24T01:55:25;14.80;99.90
5476;DHT22;2760;50.000;9.194;2023-04-24T01:57:55;13.20;99.90
5476;DHT22;2760;50.000;9.194;2023-04-24T02:00:23;11.90;99.90
5476;DHT22;2760;50.000;9.194;2023-04-24T02:02:51;13.00;99.90
5476;DHT22;2760;50.000;9.194;2023-04-24T02:05:18;15.10;99.90
5476;DHT22;2760;50.000;9.194;2023-04-24T02:07:45;13.00;99.90
5476;DHT22;2760;50.000;9.194;2023-04-24T02:10:12;13.10;99.90
5476;DHT22;2760;50.000;9.194;2023-04-24T02:12:42;13.30;99.90
5476;DHT22;2760;50.000;9.194;2023-04-24T02:15:12;14.40;99.90
5476;DHT22;2760;50.000;9.194;2023-04-24T02:17:39;13.10;99.90
5476;DHT22;2760;50.000;9.194;2023-04-24T02:20:07;13.10;99.90
5476;DHT22;2760;50.000;9.194;2023-04-24T02:22:35;13.10;99.90
5476;DHT22;2760;50.000;9.194;2023-04-24T02:25:02;13.00;99.90
5476;DHT22;2760;50.000;9.194;2023-04-24T02:27:29;13.00;99.90
5476;DHT22;2760;50.000;9.194;2023-04-24T02:29:57;14.50;99.90
5476;DHT22;2760;50.000;9.194;2023-04-24T02:32:27;13.10;99.90
5476;DHT22;2760;50.000;9.194;2023-04-24T02:34:54;13.00;99.90
5476;DHT22;2760;50.000;9.194;2023-04-24T02:37:21;11.20;99.90
5476;DHT22;2760;50.000;9.194;2023-04-24T02:39:48;13.00;99.90
5476;DHT22;2760;50.000;9.194;2023-04-24T02:42:16;13.00;99.90
5476;DHT22;2760;50.000;9.194;2023-04-24T02:44:43;13.60;99.90
5476;DHT22;2760;50.000;9.194;2023-04-24T02:47:10;14.20;99.90
5476;DHT22;2760;50.000;9.194;2023-04-24T02:49:39;13.10;99.90
5476;DHT22;2760;50.000;9.194;2023-04-24T02:52:06;13.10;99.90
5476;DHT22;2760;50.000;9.194;2023-04-24T02:54:33;14.50;99.90
5476;DHT22;2760;50.000;9.194;2023-04-24T02:57:00;14.60;99.90
5476;DHT22;2760;50.000;9.194;2023-04-24T02:59:28;14.10;99.90
5476;DHT22;2760;50.000;9.194;2023-04-24T03:01:56;14.30;99.90
5476;DHT22;2760;50.000;9.194;2023-04-24T03:04:23;14.10;99.90
5476;DHT22;2760;50.000;9.194;2023-04-24T03:06:51;14.70;99.90
5476;DHT22;2760;50.000;9.194;2023-04-24T03:09:20;13.20;99.90
5476;DHT22;2760;50.000;9.194;2023-04-24T03:11:47;15.20;99.90
5476;DHT22;2760;50.000;9.194;2023-04-24T03:14:15;13.60;99.90
5476;DHT22;2760;50.000;9.194;2023-04-24T03:16:42;14.60;99.90
5476;DHT22;2760;50.000;9.194;2023-04-24T03:19:09;14.30;99.90
5476;DHT22;2760;50.000;9.194;2023-04-24T03:21:45;13.20;99.90
5476;DHT22;2760;50.000;9.194;2023-04-24T03:24:14;13.20;99.90
5476;DHT22;2760;50.000;9.194;2023-04-24T03:26:41;13.20;99.90
5476;DHT22;2760;50.000;9.194;2023-04-24T03:29:26;13.10;99.90
5476;DHT22;2760;50.000;9.194;2023-04-24T03:31:53;14.80;99.90
5476;DHT22;2760;50.000;9.194;2023-04-24T03:34:20;14.20;99.90
5476;DHT22;2760;50.000;9.194;2023-04-24T03:36:47;13.20;99.90
5476;DHT22;2760;50.000;9.194;2023-04-24T03:39:16;13.20;99.90
5476;DHT22;2760;50.000;9.194;2023-04-24T03:41:50;14.70;99.90
5476;DHT22;2760;50.000;9.194;2023-04-24T03:44:22;14.50;99.90
5476;DHT22;2760;50.000;9.194;2023-04-24T03:46:50;13.00;99.90
5476;DHT22;2760;50.000;9.194;2023-04-24T03:49:19;14.20;99.90
5476;DHT22;2760;50.000;9.194;2023-04-24T03:51:47;13.70;99.90
5476;DHT22;2760;50.000;9.194;2023-04-24T03:54:25;15.20;99.90
5476;DHT22;2760;50.000;9.194;2023-04-24T03:56:53;13.10;99.90
5476;DHT22;2760;50.000;9.194;2023-04-24T03:59:21;14.20;99.90
5476;DHT22;2760;50.000;9.194;2023-04-24T04:02:01;12.90;99.90
5476;DHT22;2760;50.000;9.194;2023-04-24T04:04:37;12.90;99.90
5476;DHT22;2760;50.000;9.194;2023-04-24T04:07:04;14.40;99.90
5476;DHT22;2760;50.000;9.194;2023-04-24T04:09:33;14.50;99.90
5476;DHT22;2760;50.000;9.194;2023-04-24T04:12:00;14.00;99.90
5476;DHT22;2760;50.000;9.194;2023-04-24T04:14:28;12.70;99.90
5476;DHT22;2760;50.000;9.194;2023-04-24T04:16:56;14.60;99.90
5476;DHT22;2760;50.000;9.194;2023-04-24T04:19:23;13.70;99.90
5476;DHT22;2760;50.000;9.194;2023-04-24T04:21:51;14.00;99.90
5476;DHT22;2760;50.000;9.194;2023-04-24T04:24:34;14.60;99.90
5476;DHT22;2760;50.000;9.194;2023-04-24T04:27:04;12.40;99.90
5476;DHT22;2760;50.000;9.194;2023-04-24T04:29:37;14.20;99.90
5476;DHT22;2760;50.000;9.194;2023-04-24T04:32:09;12.60;99.90
5476;DHT22;2760;50.000;9.194;2023-04-24T04:34:36;13.70;99.90
5476;DHT22;2760;50.000;9.194;2023-04-24T04:37:06;14.30;99.90
5476;DHT22;2760;50.000;9.194;2023-04-24T04:39:51;13.50;99.90
5476;DHT22;2760;50.000;9.194;2023-04-24T04:42:22;13.70;99.90
5476;DHT22;2760;50.000;9.194;2023-04-24T04:44:50;12.10;99.90
5476;DHT22;2760;50.000;9.194;2023-04-24T04:47:22;13.60;99.90
5476;DHT22;2760;50.000;9.194;2023-04-24T04:49:50;12.20;99.90
5476;DHT22;2760;50.000;9.194;2023-04-24T04:52:21;13.30;99.90
5476;DHT22;2760;50.000;9.194;2023-04-24T04:54:56;12.40;99.90
5476;DHT22;2760;50.000;9.194;2023-04-24T04:57:31;12.10;99.90
5476;DHT22;2760;50.000;9.194;2023-04-24T04:59:58;12.80;99.90
5476;DHT22;2760;50.000;9.194;2023-04-24T05:02:40;13.10;99.90
5476;DHT22;2760;50.000;9.194;2023-04-24T05:05:08;12.10;99.90
5476;DHT22;2760;50.000;9.194;2023-04-24T05:07:37;12.10;99.90
5476;DHT22;2760;50.000;9.194;2023-04-24T05:10:07;12.00;99.90
5476;DHT22;2760;50.000;9.194;2023-04-24T05:12:34;11.90;99.90
5476;DHT22;2760;50.000;9.194;2023-04-24T05:15:04;11.90;99.90
5476;DHT22;2760;50.000;9.194;2023-04-24T05:17:31;11.70;99.90
5476;DHT22;2760;50.000;9.194;2023-04-24T05:19:59;11.80;99.90
5476;DHT22;2760;50.000;9.194;2023-04-24T05:22:27;13.40;99.90
5476;DHT22;2760;50.000;9.194;2023-04-24T05:24:54;12.90;99.90
5476;DHT22;2760;50.000;9.194;2023-04-24T05:27:50;11.80;99.90
5476;DHT22;2760;50.000;9.194;2023-04-24T05:30:20;13.70;99.90
5476;DHT22;2760;50.000;9.194;2023-04-24T05:32:53;11.70;99.90
5476;DHT22;2760;50.000;9.194;2023-04-24T05:35:20;12.50;99.90
5476;DHT22;2760;50.000;9.194;2023-04-24T05:37:47;13.50;99.90
5476;DHT22;2760;50.000;9.194;2023-04-24T05:40:15;13.60;99.90
5476;DHT22;2760;50.000;9.194;2023-04-24T05:42:41;12.60;99.90
5476;DHT22;2760;50.000;9.194;2023-04-24T05:45:11;12.90;99.90
5476;DHT22;2760;50.000;9.194;2023-04-24T05:47:42;12.70;99.90
5476;DHT22;2760;50.000;9.194;2023-04-24T05:50:10;13.40;99.90
5476;DHT22;2760;50.000;9.194;2023-04-24T05:52:37;12.90;99.90
5476;DHT22;2760;50.000;9.194;2023-04-24T05:55:16;14.30;99.90
5476;DHT22;2760;50.000;9.194;2023-04-24T05:57:44;13.30;99.90
5476;DHT22;2760;50.000;9.194;2023-04-24T06:00:13;13.60;99.90
5476;DHT22;2760;50.000;9.194;2023-04-24T06:02:50;13.70;99.90
5476;DHT22;2760;50.000;9.194;2023-04-24T06:05:18;13.50;99.90
5476;DHT22;2760;50.000;9.194;2023-04-24T06:07:45;13.70;99.90
5476;DHT22;2760;50.000;9.194;2023-04-24T06:10:12;13.70;99.90
5476;DHT22;2760;50.000;9.194;2023-04-24T06:12:41;13.80;99.90
5476;DHT22;2760;50.000;9.194;2023-04-24T06:15:16;13.90;99.90
5476;DHT22;2760;50.000;9.194;2023-04-24T06:17:53;13.90;99.90
5476;DHT22;2760;50.000;9.194;2023-04-24T06:20:20;13.30;99.90
5476;DHT22;2760;50.000;9.194;2023-04-24T06:22:47;13.70;99.90
5476;DHT22;2760;50.000;9.194;2023-04-24T06:25:14;13.80;99.90
5476;DHT22;2760;50.000;9.194;2023-04-24T06:27:42;13.70;99.90
5476;DHT22;2760;50.000;9.194;2023-04-24T06:30:10;13.50;99.90
5476;DHT22;2760;50.000;9.194;2023-04-24T06:32:39;13.40;99.90
5476;DHT22;2760;50.000;9.194;2023-04-24T06:35:07;13.60;99.90
5476;DHT22;2760;50.000;9.194;2023-04-24T06:37:35;13.80;99.90
5476;DHT22;2760;50.000;9.194;2023-04-24T06:40:03;15.20;99.90
5476;DHT22;2760;50.000;9.194;2023-04-24T06:42:33;14.00;99.90
5476;DHT22;2760;50.000;9.194;2023-04-24T06:45:03;14.30;99.90
5476;DHT22;2760;50.000;9.194;2023-04-24T06:47:30;14.60;99.90
5476;DHT22;2760;50.000;9.194;2023-04-24T06:49:59;16.90;99.90
5476;DHT22;2760;50.000;9.194;2023-04-24T06:52:26;15.60;99.90
5476;DHT22;2760;50.000;9.194;2023-04-24T06:54:59;15.10;99.90
5476;DHT22;2760;50.000;9.194;2023-04-24T06:57:26;14.90;99.90
5476;DHT22;2760;50.000;9.194;2023-04-24T06:59:53;14.60;99.90
5476;DHT22;2760;50.000;9.194;2023-04-24T07:02:20;16.40;99.90
5476;DHT22;2760;50.000;9.194;2023-04-24T07:04:47;15.40;99.90
5476;DHT22;2760;50.000;9.194;2023-04-24T07:07:15;13.80;99.90
5476;DHT22;2760;50.000;9.194;2023-04-24T07:09:42;14.80;99.90
5476;DHT22;2760;50.000;9.194;2023-04-24T07:12:11;15.20;99.90
5476;DHT22;2760;50.000;9.194;2023-04-24T07:14:39;13.60;99.90
5476;DHT22;2760;50.000;9.194;2023-04-24T07:17:06;13.50;99.90
5476;DHT22;2760;50.000;9.194;2023-04-24T07:19:34;14.10;99.90
5476;DHT22;2760;50.000;9.194;2023-04-24T07:22:01;13.30;99.90
5476;DHT22;2760;50.000;9.194;2023-04-24T07:24:30;13.30;99.90
5476;DHT22;2760;50.000;9.194;2023-04-24T07:26:57;14.90;99.90
5476;DHT22;2760;50.000;9.194;2023-04-24T07:29:25;13.50;99.90
5476;DHT22;2760;50.000;9.194;2023-04-24T07:31:52;13.60;99.90
5476;DHT22;2760;50.000;9.194;2023-04-24T07:34:19;15.80;99.90
5476;DHT22;2760;50.000;9.194;2023-04-24T07:36:49;13.60;99.90
5476;DHT22;2760;50.000;9.194;2023-04-24T07:39:16;14.70;99.90
5476;DHT22;2760;50.000;9.194;2023-04-24T07:41:44;15.00;99.90
5476;DHT22;2760;50.000;9.194;2023-04-24T07:44:11;13.60;99.90
5476;DHT22;2760;50.000;9.194;2023-04-24T07:46:38;14.50;99.90
5476;DHT22;2760;50.000;9.194;2023-04-24T07:49:06;14.10;99.90
5476;DHT22;2760;50.000;9.194;2023-04-24T07:51:33;14.20;99.20
5476;DHT22;2760;50.000;9.194;2023-04-24T07:54:03;15.20;99.90
5476;DHT22;2760;50.000;9.194;2023-04-24T07:56:32;13.90;99.90
5476;DHT22;2760;50.000;9.194;2023-04-24T07:59:00;13.50;99.90
5476;DHT22;2760;50.000;9.194;2023-04-24T08:01:27;15.60;99.90
5476;DHT22;2760;50.000;9.194;2023-04-24T08:03:54;13.80;99.90
5476;DHT22;2760;50.000;9.194;2023-04-24T08:06:21;14.30;99.90
5476;DHT22;2760;50.000;9.194;2023-04-24T08:08:48;14.10;99.50
5476;DHT22;2760;50.000;9.194;2023-04-24T08:11:17;15.10;99.90
5476;DHT22;2760;50.000;9.194;2023-04-24T08:13:44;14.20;99.50
5476;DHT22;2760;50.000;9.194;2023-04-24T08:16:12;15.00;99.60
5476;DHT22;2760;50.000;9.194;2023-04-24T08:18:39;15.90;99.90
5476;DHT22;2760;50.000;9.194;2023-04-24T08:21:07;14.10;99.10
5476;DHT22;2760;50.000;9.194;2023-04-24T08:23:34;14.00;99.20
5476;DHT22;2760;50.000;9.194;2023-04-24T08:26:01;12.70;98.40
5476;DHT22;2760;50.000;9.194;2023-04-24T08:28:28;14.90;99.90
5476;DHT22;2760;50.000;9.194;2023-04-24T08:30:56;15.20;99.90
5476;DHT22;2760;50.000;9.194;2023-04-24T08:33:24;15.10;99.90
5476;DHT22;2760;50.000;9.194;2023-04-24T08:35:52;15.00;99.60
5476;DHT22;2760;50.000;9.194;2023-04-24T08:38:19;14.60;99.10
5476;DHT22;2760;50.000;9.194;2023-04-24T08:40:46;14.90;99.20
5476;DHT22;2760;50.000;9.194;2023-04-24T08:43:15;14.80;98.70
5476;DHT22;2760;50.000;9.194;2023-04-24T08:45:43;14.80;98.70
5476;DHT22;2760;50.000;9.194;2023-04-24T08:48:10;15.40;99.10
5476;DHT22;2760;50.000;9.194;2023-04-24T08:50:38;15.60;98.90
5476;DHT22;2760;50.000;9.194;2023-04-24T08:53:08;16.40;99.80
5476;DHT22;2760;50.000;9.194;2023-04-24T08:55:35;14.20;98.90
5476;DHT22;2760;50.000;9.194;2023-04-24T08:58:04;14.30;99.10
5476;DHT22;2760;50.000;9.194;2023-04-24T09:00:31;15.30;99.60
5476;DHT22;2760;50.000;9.194;2023-04-24T09:03:00;14.50;99.40
5476;DHT22;2760;50.000;9.194;2023-04-24T09:05:30;13.80;98.80
5476;DHT22;2760;50.000;9.194;2023-04-24T09:07:59;14.50;98.20
5476;DHT22;2760;50.000;9.194;2023-04-24T09:10:30;15.80;99.30
5476;DHT22;2760;50.000;9.194;2023-04-24T09:12:58;16.80;99.70
5476;DHT22;2760;50.000;9.194;2023-04-24T09:15:27;15.70;98.10
5476;DHT22;2760;50.000;9.194;2023-04-24T09:17:54;16.10;97.90
5476;DHT22;2760;50.000;9.194;2023-04-24T09:20:21;16.10;98.00
5476;DHT22;2760;50.000;9.194;2023-04-24T09:22:53;16.50;99.00
5476;DHT22;2760;50.000;9.194;2023-04-24T09:25:23;14.30;98.60
5476;DHT22;2760;50.000;9.194;2023-04-24T09:27:53;14.10;98.40
5476;DHT22;2760;50.000;9.194;2023-04-24T09:30:22;14.00;98.70
5476;DHT22;2760;50.000;9.194;2023-04-24T09:32:49;13.90;98.70
5476;DHT22;2760;50.000;9.194;2023-04-24T09:35:16;13.90;98.30
5476;DHT22;2760;50.000;9.194;2023-04-24T09:37:46;13.80;98.10
5476;DHT22;2760;50.000;9.194;2023-04-24T09:40:16;14.40;99.00
5476;DHT22;2760;50.000;9.194;2023-04-24T09:42:45;13.60;98.60
5476;DHT22;2760;50.000;9.194;2023-04-24T09:45:12;13.40;98.70
5476;DHT22;2760;50.000;9.194;2023-04-24T09:47:40;15.10;99.20
5476;DHT22;2760;50.000;9.194;2023-04-24T09:50:12;13.30;98.30
5476;DHT22;2760;50.000;9.194;2023-04-24T09:52:41;13.20;98.80
5476;DHT22;2760;50.000;9.194;2023-04-24T09:55:18;13.40;97.90
5476;DHT22;2760;50.000;9.194;2023-04-24T09:57:54;13.50;97.60
5476;DHT22;2760;50.000;9.194;2023-04-24T10:00:26;15.80;99.10
5476;DHT22;2760;50.000;9.194;2023-04-24T10:02:57;13.60;98.00
5476;DHT22;2760;50.000;9.194;2023-04-24T10:05:27;14.50;98.50
5476;DHT22;2760;50.000;9.194;2023-04-24T10:08:00;13.50;97.70
5476;DHT22;2760;50.000;9.194;2023-04-24T10:10:28;14.70;99.00
5476;DHT22;2760;50.000;9.194;2023-04-24T10:12:57;15.60;99.50
5476;DHT22;2760;50.000;9.194;2023-04-24T10:15:24;13.50;98.30
5476;DHT22;2760;50.000;9.194;2023-04-24T10:17:53;13.50;98.80
5476;DHT22;2760;50.000;9.194;2023-04-24T10:20:21;13.40;98.90
5476;DHT22;2760;50.000;9.194;2023-04-24T10:22:50;14.10;99.50
5476;DHT22;2760;50.000;9.194;2023-04-24T10:25:19;13.30;98.60
5476;DHT22;2760;50.000;9.194;2023-04-24T10:27:48;12.60;98.40
5476;DHT22;2760;50.000;9.194;2023-04-24T10:30:17;13.90;99.40
5476;DHT22;2760;50.000;9.194;2023-04-24T10:32:44;13.30;98.30
5476;DHT22;2760;50.000;9.194;2023-04-24T10:35:13;13.30;98.80
5476;DHT22;2760;50.000;9.194;2023-04-24T10:37:43;14.50;99.30
5476;DHT22;2760;50.000;9.194;2023-04-24T10:40:12;13.70;98.10
5476;DHT22;2760;50.000;9.194;2023-04-24T10:42:42;14.00;98.60
5476;DHT22;2760;50.000;9.194;2023-04-24T10:45:18;14.50;99.10
5476;DHT22;2760;50.000;9.194;2023-04-24T10:47:56;13.90;98.50
5476;DHT22;2760;50.000;9.194;2023-04-24T10:50:25;11.60;97.60
5476;DHT22;2760;50.000;9.194;2023-04-24T10:52:53;14.40;98.50
5476;DHT22;2760;50.000;9.194;2023-04-24T10:55:41;14.40;98.60
5476;DHT22;2760;50.000;9.194;2023-04-24T10:58:09;14.50;98.00
5476;DHT22;2760;50.000;9.194;2023-04-24T11:00:39;15.80;98.70
5476;DHT22;2760;50.000;9.194;2023-04-24T11:03:22;14.30;98.10
5476;DHT22;2760;50.000;9.194;2023-04-24T11:05:53;15.00;98.90
5476;DHT22;2760;50.000;9.194;2023-04-24T11:08:24;14.10;99.10
5476;DHT22;2760;50.000;9.194;2023-04-24T11:11:01;16.10;99.90
5476;DHT22;2760;50.000;9.194;2023-04-24T11:14:01;13.90;99.70
5476;DHT22;2760;50.000;9.194;2023-04-24T11:16:30;13.40;99.90
5476;DHT22;2760;50.000;9.194;2023-04-24T11:19:03;13.40;99.50
5476;DHT22;2760;50.000;9.194;2023-04-24T11:21:32;13.50;99.40
5476;DHT22;2760;50.000;9.194;2023-04-24T11:24:25;13.40;99.40
5476;DHT22;2760;50.000;9.194;2023-04-24T11:26:54;13.40;99.40
5476;DHT22;2760;50.000;9.194;2023-04-24T11:29:22;13.60;99.80
5476;DHT22;2760;50.000;9.194;2023-04-24T11:31:51;13.60;99.50
5476;DHT22;2760;50.000;9.194;2023-04-24T11:34:18;13.70;99.70
5476;DHT22;2760;50.000;9.194;2023-04-24T11:36:46;13.10;99.90
5476;DHT22;2760;50.000;9.194;2023-04-24T11:39:14;11.00;99.90
5476;DHT22;2760;50.000;9.194;2023-04-24T11:41:42;14.60;99.90
5476;DHT22;2760;50.000;9.194;2023-04-24T11:44:09;14.60;99.90
5476;DHT22;2760;50.000;9.194;2023-04-24T11:46:37;14.70;99.90
5476;DHT22;2760;50.000;9.194;2023-04-24T11:49:07;12.50;99.90
5476;DHT22;2760;50.000;9.194;2023-04-24T11:51:34;14.40;99.90
5476;DHT22;2760;50.000;9.194;2023-04-24T11:54:01;10.70;99.90
5476;DHT22;2760;50.000;9.194;2023-04-24T11:56:28;12.50;99.90
5476;DHT22;2760;50.000;9.194;2023-04-24T11:58:56;12.60;99.90
5476;DHT22;2760;50.000;9.194;2023-04-24T12:01:23;12.60;99.90
5476;DHT22;2760;50.000;9.194;2023-04-24T12:03:50;12.70;99.90
5476;DHT22;2760;50.000;9.194;2023-04-24T12:06:19;12.60;99.90
5476;DHT22;2760;50.000;9.194;2023-04-24T12:08:46;12.70;99.90
5476;DHT22;2760;50.000;9.194;2023-04-24T12:11:15;12.80;99.90
5476;DHT22;2760;50.000;9.194;2023-04-24T12:13:44;12.70;99.90
5476;DHT22;2760;50.000;9.194;2023-04-24T12:16:12;13.60;99.90
5476;DHT22;2760;50.000;9.194;2023-04-24T12:18:44;14.20;99.90
5476;DHT22;2760;50.000;9.194;2023-04-24T12:21:20;14.80;99.90
5476;DHT22;2760;50.000;9.194;2023-04-24T12:23:48;12.60;99.90
5476;DHT22;2760;50.000;9.194;2023-04-24T12:26:17;12.60;99.90
5476;DHT22;2760;50.000;9.194;2023-04-24T12:28:47;14.30;99.90
5476;DHT22;2760;50.000;9.194;2023-04-24T12:31:15;12.70;99.90
5476;DHT22;2760;50.000;9.194;2023-04-24T12:33:43;12.60;99.90
5476;DHT22;2760;50.000;9.194;2023-04-24T12:36:11;14.50;99.90
5476;DHT22;2760;50.000;9.194;2023-04-24T12:38:44;12.40;99.90
5476;DHT22;2760;50.000;9.194;2023-04-24T12:41:13;12.30;99.90
5476;DHT22;2760;50.000;9.194;2023-04-24T12:43:51;14.80;99.90
5476;DHT22;2760;50.000;9.194;2023-04-24T12:46:18;13.50;99.90
5476;DHT22;2760;50.000;9.194;2023-04-24T12:48:45;13.20;99.90
5476;DHT22;2760;50.000;9.194;2023-04-24T12:51:13;12.00;99.90
5476;DHT22;2760;50.000;9.194;2023-04-24T12:53:40;14.60;99.90
5476;DHT22;2760;50.000;9.194;2023-04-24T12:56:08;13.90;99.90
5476;DHT22;2760;50.000;9.194;2023-04-24T13:01:02;13.40;99.90
5476;DHT22;2760;50.000;9.194;2023-04-24T13:03:29;15.20;99.90
5476;DHT22;2760;50.000;9.194;2023-04-24T13:05:59;12.80;99.90
5476;DHT22;2760;50.000;9.194;2023-04-24T13:08:29;13.70;99.90
5476;DHT22;2760;50.000;9.194;2023-04-24T13:10:56;13.60;99.90
5476;DHT22;2760;50.000;9.194;2023-04-24T13:13:25;15.00;99.90
5476;DHT22;2760;50.000;9.194;2023-04-24T13:15:52;13.90;99.90
5476;DHT22;2760;50.000;9.194;2023-04-24T13:18:19;13.90;99.90
5476;DHT22;2760;50.000;9.194;2023-04-24T13:20:46;13.40;99.90
5476;DHT22;2760;50.000;9.194;2023-04-24T13:23:13;15.00;99.90
5476;DHT22;2760;50.000;9.194;2023-04-24T13:25:41;14.20;99.90
5476;DHT22;2760;50.000;9.194;2023-04-24T13:28:07;12.60;99.90
5476;DHT22;2760;50.000;9.194;2023-04-24T13:30:37;12.70;99.90
5476;DHT22;2760;50.000;9.194;2023-04-24T13:33:04;13.90;99.90
5476;DHT22;2760;50.000;9.194;2023-04-24T13:35:31;13.90;99.90
5476;DHT22;2760;50.000;9.194;2023-04-24T13:37:58;13.90;99.90
5476;DHT22;2760;50.000;9.194;2023-04-24T13:40:27;10.80;99.90
5476;DHT22;2760;50.000;9.194;2023-04-24T13:42:54;13.20;99.90
5476;DHT22;2760;50.000;9.194;2023-04-24T13:45:21;14.70;99.90
5476;DHT22;2760;50.000;9.194;2023-04-24T13:47:49;12.90;99.90
5476;DHT22;2760;50.000;9.194;2023-04-24T13:50:16;12.70;99.90
5476;DHT22;2760;50.000;9.194;2023-04-24T13:52:43;13.60;99.90
5476;DHT22;2760;50.000;9.194;2023-04-24T13:55:11;12.70;99.90
5476;DHT22;2760;50.000;9.194;2023-04-24T13:57:39;12.70;99.90
5476;DHT22;2760;50.000;9.194;2023-04-24T14:00:07;14.30;99.90
5476;DHT22;2760;50.000;9.194;2023-04-24T14:02:36;13.00;99.90
5476;DHT22;2760;50.000;9.194;2023-04-24T14:05:05;14.40;99.90
5476;DHT22;2760;50.000;9.194;2023-04-24T14:07:33;13.00;99.90
5476;DHT22;2760;50.000;9.194;2023-04-24T14:10:00;13.00;99.90
5476;DHT22;2760;50.000;9.194;2023-04-24T14:12:27;13.50;99.90
5476;DHT22;2760;50.000;9.194;2023-04-24T14:14:54;13.30;99.90
5476;DHT22;2760;50.000;9.194;2023-04-24T14:17:21;14.00;99.90
5476;DHT22;2760;50.000;9.194;2023-04-24T14:19:48;13.30;99.90
5476;DHT22;2760;50.000;9.194;2023-04-24T14:22:17;15.20;99.90
5476;DHT22;2760;50.000;9.194;2023-04-24T14:24:44;13.50;99.90
5476;DHT22;2760;50.000;9.194;2023-04-24T14:27:11;14.60;99.90
5476;DHT22;2760;50.000;9.194;2023-04-24T14:29:38;13.80;99.90
5476;DHT22;2760;50.000;9.194;2023-04-24T14:32:05;13.70;99.90
5476;DHT22;2760;50.000;9.194;2023-04-24T14:34:32;13.80;99.90
5476;DHT22;2760;50.000;9.194;2023-04-24T14:36:59;13.50;99.90
5476;DHT22;2760;50.000;9.194;2023-04-24T14:39:27;12.00;99.90
5476;DHT22;2760;50.000;9.194;2023-04-24T14:41:54;13.40;99.90
5476;DHT22;2760;50.000;9.194;2023-04-24T14:44:22;13.20;99.90
5476;DHT22;2760;50.000;9.194;2023-04-24T14:46:49;15.70;99.90
5476;DHT22;2760;50.000;9.194;2023-04-24T14:49:16;15.10;99.90
5476;DHT22;2760;50.000;9.194;2023-04-24T14:51:44;13.30;99.90
5476;DHT22;2760;50.000;9.194;2023-04-24T14:54:11;13.40;99.90
5476;DHT22;2760;50.000;9.194;2023-04-24T14:56:40;13.50;99.90
5476;DHT22;2760;50.000;9.194;2023-04-24T14:59:09;15.40;99.90
5476;DHT22;2760;50.000;9.194;2023-04-24T15:01:36;15.00;99.90
5476;DHT22;2760;50.000;9.194;2023-04-24T15:04:03;13.50;99.90
5476;DHT22;2760;50.000;9.194;2023-04-24T15:06:30;13.60;99.90
5476;DHT22;2760;50.000;9.194;2023-04-24T15:08:58;13.80;99.90
5476;DHT22;2760;50.000;9.194;2023-04-24T15:11:25;16.20;99.90
5476;DHT22;2760;50.000;9.194;2023-04-24T15:13:55;14.00;99.90
5476;DHT22;2760;50.000;9.194;2023-04-24T15:16:23;14.10;99.50
5476;DHT22;2760;50.000;9.194;2023-04-24T15:18:50;16.30;99.90
5476;DHT22;2760;50.000;9.194;2023-04-24T15:21:18;14.20;99.50
5476;DHT22;2760;50.000;9.194;2023-04-24T15:23:45;15.70;99.90
5476;DHT22;2760;50.000;9.194;2023-04-24T15:26:13;15.40;99.90
5476;DHT22;2760;50.000;9.194;2023-04-24T15:28:40;15.00;99.90
5476;DHT22;2760;50.000;9.194;2023-04-24T15:31:08;16.10;99.90
5476;DHT22;2760;50.000;9.194;2023-04-24T15:33:35;14.80;99.90
5476;DHT22;2760;50.000;9.194;2023-04-24T15:36:03;14.20;99.70
5476;DHT22;2760;50.000;9.194;2023-04-24T15:38:30;14.10;99.30
5476;DHT22;2760;50.000;9.194;2023-04-24T15:40:57;14.00;99.70
5476;DHT22;2760;50.000;9.194;2023-04-24T15:43:24;15.40;99.90
5476;DHT22;2760;50.000;9.194;2023-04-24T15:45:51;13.90;99.90
5476;DHT22;2760;50.000;9.194;2023-04-24T15:48:20;16.10;99.90
5476;DHT22;2760;50.000;9.194;2023-04-24T15:50:50;14.20;99.90
5476;DHT22;2760;50.000;9.194;2023-04-24T15:53:17;15.20;99.90
5476;DHT22;2760;50.000;9.194;2023-04-24T15:55:46;14.20;98.90
5476;DHT22;2760;50.000;9.194;2023-04-24T15:58:13;12.60;97.80
5476;DHT22;2760;50.000;9.194;2023-04-24T16:00:41;14.00;98.40
5476;DHT22;2760;50.000;9.194;2023-04-24T16:03:08;12.00;97.50
5476;DHT22;2760;50.000;9.194;2023-04-24T16:05:36;14.00;98.00
5476;DHT22;2760;50.000;9.194;2023-04-24T16:08:03;14.10;97.60
5476;DHT22;2760;50.000;9.194;2023-04-24T16:10:30;14.10;98.10
5476;DHT22;2760;50.000;9.194;2023-04-24T16:12:58;15.50;98.80
5476;DHT22;2760;50.000;9.194;2023-04-24T16:15:28;14.30;98.00
5476;DHT22;2760;50.000;9.194;2023-04-24T16:17:55;14.40;98.10
5476;DHT22;2760;50.000;9.194;2023-04-24T16:20:23;15.80;99.10
5476;DHT22;2760;50.000;9.194;2023-04-24T16:22:51;14.40;98.00
5476;DHT22;2760;50.000;9.194;2023-04-24T16:25:18;16.50;99.10